Flight Track Log - Related Links

Times and Time Zones

All times are in EDT time to prevent confusion due to time zone crossing. See the SKW6528 flight status page for this flight to view local times or setup timezone preferences in your user account.

Time Position Orientation Groundspeed Altitude Reporting Facility
EDT Latitude Longitude Course Direction KTS MPH feet Rate Location/Type
Fri 12:27:00 PM 39.7684 -104.0252 105° East  Level FlightAware Approximate
Fri 12:28:00 PM 39.7553 -103.8638 98° East  Level FlightAware Approximate
Fri 12:29:00 PM 39.7306 -103.7063 95° East  Level FlightAware Approximate
Fri 12:30:00 PM 39.7205 -103.5441 95° East  Level FlightAware Approximate
Fri 12:31:00 PM 39.7062 -103.3826 98° East  Level FlightAware Approximate
Fri 12:32:00 PM 39.6892 -103.2215 98° East  Level FlightAware Approximate
Fri 12:33:00 PM 39.6771 -103.0598 94° East  Level FlightAware Approximate
Fri 12:34:00 PM 39.6675 -102.8977 94° East  Level FlightAware Approximate
Fri 12:35:00 PM 39.6488 -102.7371 97° East  Level FlightAware Approximate
Fri 12:36:00 PM 39.6335 -102.5759 97° East  Level FlightAware Approximate
Fri 12:37:00 PM 39.6181 -102.4147 97° East  Level FlightAware Approximate
Fri 12:38:00 PM 39.6072 -102.2549 113° Southeast  Level FlightAware Approximate
Fri 12:39:00 PM 39.5902 -102.0951 95° East  Level FlightAware Approximate
Fri 12:40:00 PM 39.5834 -101.9332 90° East  Level FlightAware Approximate
Fri 12:41:00 PM 39.5708 -101.7722 100° East  Level FlightAware Approximate
Fri 12:42:00 PM 39.5497 -101.6123 96° East  Level FlightAware Approximate
Fri 12:43:00 PM 39.5373 -101.4509 96° East  Level FlightAware Approximate
Fri 12:44:00 PM 39.5166 -101.2911 101° East  Level FlightAware Approximate
Fri 12:45:00 PM 39.4927 -101.1319 100° East  Level FlightAware Approximate
Fri 12:46:00 PM 39.4699 -100.9725 100° East  Level FlightAware Approximate
Fri 12:47:00 PM 39.4469 -100.8133 101° East  Level FlightAware Approximate
Fri 12:48:00 PM 39.4237 -100.6541 101° East  Level FlightAware Approximate
Fri 12:49:00 PM 39.4002 -100.4950 101° East  Level FlightAware Approximate
Fri 12:50:00 PM 39.3766 -100.3361 101° East  Level FlightAware Approximate
Fri 12:51:00 PM 39.3527 -100.1772 101° East  Level FlightAware Approximate
Fri 12:52:00 PM 39.3286 -100.0185 101° East  Level FlightAware Approximate
Fri 12:53:00 PM 39.3043 -99.8599 101° East  Level FlightAware Approximate
Fri 12:54:00 PM 39.2798 -99.7013 101° East  Level FlightAware Approximate
Fri 12:55:00 PM 39.2551 -99.5429 101° East  Level FlightAware Approximate
Fri 12:56:00 PM 39.2301 -99.3846 101° East  Level FlightAware Approximate
Fri 12:57:00 PM 39.2048 -99.2265 102° East  Level FlightAware Approximate
Fri 12:58:00 PM 39.1792 -99.0685 102° East  Level FlightAware Approximate
Fri 12:59:00 PM 39.1534 -98.9106 102° East  Level FlightAware Approximate
Fri 01:00:00 PM 39.1274 -98.7528 102° East  Level FlightAware Approximate
Fri 01:01:00 PM 39.1012 -98.5952 102° East  Level FlightAware Approximate
Fri 01:02:00 PM 39.0747 -98.4376 102° East  Level FlightAware Approximate
Fri 01:03:00 PM 39.0480 -98.2802 102° East  Level FlightAware Approximate
Fri 01:04:00 PM 39.0212 -98.1229 102° East  Level FlightAware Approximate
Fri 01:05:00 PM 38.9896 -97.9676 113° Southeast  Level FlightAware Approximate
Fri 01:06:00 PM 38.9415 -97.8190 113° Southeast  Level FlightAware Approximate
Fri 01:07:00 PM 38.8933 -97.6706 113° Southeast  Level FlightAware Approximate
Fri 01:08:00 PM 38.8450 -97.5224 113° Southeast  Level FlightAware Approximate
Fri 01:09:00 PM 38.7964 -97.3744 113° Southeast  Level FlightAware Approximate
Fri 01:10:00 PM 38.7476 -97.2267 113° Southeast  Level FlightAware Approximate
Fri 01:11:00 PM 38.6987 -97.0791 113° Southeast  Level FlightAware Approximate
Fri 01:12:00 PM 38.6495 -96.9317 113° Southeast  Level FlightAware Approximate
Fri 01:13:00 PM 38.5985 -96.7855 114° Southeast  Level FlightAware Approximate
Fri 01:14:00 PM 38.5466 -96.6399 113° Southeast  Level FlightAware Approximate
Fri 01:15:00 PM 38.4970 -96.4931 113° Southeast  Level FlightAware Approximate
Fri 01:16:00 PM 38.4473 -96.3465 113° Southeast  Level FlightAware Approximate
Fri 01:17:00 PM 38.3974 -96.2001 113° Southeast  Level FlightAware Approximate
Fri 01:18:00 PM 38.3472 -96.0538 114° Southeast  Level FlightAware Approximate
Fri 01:19:00 PM 38.2967 -95.9079 115° Southeast  Level FlightAware Approximate
Fri 01:20:00 PM 38.2429 -95.7641 115° Southeast  Level FlightAware Approximate
Fri 01:21:00 PM 38.1922 -95.6188 108° East  Level FlightAware Approximate
Fri 01:22:00 PM 38.1322 -95.4802 114° Southeast  Level FlightAware Approximate
Fri 01:23:00 PM 38.0804 -95.3355 114° Southeast  Level FlightAware Approximate
Fri 01:24:00 PM 38.0283 -95.1911 115° Southeast  Level FlightAware Approximate
Fri 01:25:00 PM 37.9791 -95.0454 104° East  Level FlightAware Approximate
Fri 01:26:00 PM 37.9376 -94.8962 113° Southeast  Level FlightAware Approximate
Fri 01:27:00 PM 37.8818 -94.7543 117° Southeast  Level FlightAware Approximate
Fri 01:28:00 PM 37.8260 -94.6125 114° Southeast  Level FlightAware Approximate
Fri 01:29:00 PM 37.7751 -94.4679 114° Southeast  Level FlightAware Approximate
Fri 01:30:00 PM 37.7239 -94.3235 114° Southeast  Level FlightAware Approximate
Fri 01:31:00 PM 37.6725 -94.1794 114° Southeast  Level FlightAware Approximate
Fri 01:32:00 PM 37.6135 -94.0405 113° Southeast  Level FlightAware Approximate
Fri 01:33:00 PM 37.5650 -93.8950 113° Southeast  Level FlightAware Approximate
Fri 01:34:00 PM 37.5112 -93.7526 117° Southeast  Level FlightAware Approximate
Fri 01:35:00 PM 37.4548 -93.6119 117° Southeast  Level FlightAware Approximate
Fri 01:36:00 PM 37.4011 -93.4700 113° Southeast  Level FlightAware Approximate
Fri 01:37:00 PM 37.3455 -93.3351 198° South  Level FlightAware Approximate
Fri 01:38:00 PM 37.2457 -93.3886 202° Southwest  Level Estimated
Fri 01:39:00 PM 37.2457 -93.3886 202° Southwest  Level Estimated
Fri 01:40:00 PM 37.2457 -93.3886 202° Southwest  Level Estimated
Fri 01:41:00 PM 37.2457 -93.3886 202° Southwest  Level Estimated
Fri 01:42:00 PM 37.2457 -93.3886 202° Southwest  Level Estimated
Fri 01:43:00 PM 37.2457 -93.3886 202° Southwest  Level Estimated
Fri 01:44:00 PM 37.2457 -93.3886 202° Southwest  Level Estimated
Fri 01:45:00 PM 37.2457 -93.3886 202° Southwest  Level Estimated
Fri 01:46:00 PM 37.2457 -93.3886 202° Southwest  Level Estimated
Fri 01:47:00 PM 37.2457 -93.3886 202° Southwest  Level Estimated
Fri 01:48:00 PM 37.2457 -93.3886 202° Southwest  Level Estimated

Login

Don't have an account? Register now (free) for customized features, flight alerts, and more!